Time;durP1;ratioP1;P1;durP2;ratioP2;P2;SDS_P1;SDS_P2;PMS_P1;PMS_P2;Temp;Humidity;BMP_temperature;BMP_pressure;BME280_temperature;BME280_humidity;BME280_pressure;Samples;Min_cycle;Max_cycle;Signal;HPM_P1;HPM_P2
2023/08/19 00:01:12;;;;;;;23.10;12.60;;;;;;;18.09;100.00;101341.97;7395262;19;20487;-51
2023/08/19 00:03:45;;;;;;;17.67;12.23;;;;;;;18.09;100.00;101347.19;7369398;19;20427;-51
2023/08/19 00:06:33;;;;;;;18.97;11.50;;;;;;;18.08;100.00;101356.78;7395284;19;20479;-45
2023/08/19 00:09:04;;;;;;;22.27;12.43;;;;;;;18.08;100.00;101351.56;7366300;19;20463;-45
2023/08/19 00:11:34;;;;;;;23.30;12.73;;;;;;;18.09;100.00;101357.63;7393600;19;20391;-45
2023/08/19 00:14:05;;;;;;;20.23;12.70;;;;;;;18.07;100.00;101359.34;7370410;19;20462;-45
2023/08/19 00:16:35;;;;;;;18.07;12.30;;;;;;;18.05;100.00;101358.41;7393473;19;20403;-45
2023/08/19 00:19:07;;;;;;;23.43;13.30;;;;;;;18.03;100.00;101349.66;7368004;19;20476;-44
2023/08/19 00:21:38;;;;;;;20.70;12.73;;;;;;;18.02;100.00;101345.28;7394944;19;20413;-49
2023/08/19 00:24:08;;;;;;;21.60;12.67;;;;;;;18.01;100.00;101340.91;7369967;19;20434;-47
2023/08/19 00:26:37;;;;;;;22.10;13.77;;;;;;;18.00;100.00;101342.63;7394152;19;20411;-44
2023/08/19 00:29:07;;;;;;;21.20;13.43;;;;;;;18.02;100.00;101347.88;7368103;19;21058;-49
2023/08/19 00:31:39;;;;;;;19.17;13.93;;;;;;;18.01;100.00;101349.63;7395370;19;20404;-47
2023/08/19 00:34:11;;;;;;;19.97;13.43;;;;;;;18.01;100.00;101343.53;7369482;19;20455;-47
2023/08/19 00:36:41;;;;;;;24.00;14.03;;;;;;;17.99;100.00;101351.31;7393195;19;20756;-46
2023/08/19 00:39:13;;;;;;;24.20;14.70;;;;;;;18.00;100.00;101342.63;7367433;19;20473;-47
2023/08/19 00:41:43;;;;;;;18.40;13.23;;;;;;;18.00;100.00;101331.31;7393399;19;20786;-50
2023/08/19 00:44:12;;;;;;;22.80;14.10;;;;;;;18.04;100.00;101327.91;7369633;19;20458;-44
2023/08/19 00:46:43;;;;;;;23.20;13.60;;;;;;;18.05;100.00;101329.69;7391559;19;20407;-47
2023/08/19 00:49:15;;;;;;;19.27;13.50;;;;;;;18.09;100.00;101328.91;7365620;19;20478;-46
2023/08/19 00:51:44;;;;;;;19.73;13.30;;;;;;;18.12;100.00;101331.59;7389723;19;20977;-45
2023/08/19 00:54:14;;;;;;;20.00;14.00;;;;;;;18.13;100.00;101330.75;7366289;19;20454;-49
2023/08/19 00:56:44;;;;;;;20.10;14.50;;;;;;;18.13;100.00;101328.13;7390011;19;20418;-47
2023/08/19 00:59:13;;;;;;;23.63;13.73;;;;;;;18.13;100.00;101322.03;7365582;19;20466;-49
2023/08/19 01:01:43;;;;;;;20.63;13.70;;;;;;;18.13;100.00;101319.41;7392359;19;20871;-45
2023/08/19 01:04:15;;;;;;;20.50;12.93;;;;;;;18.09;100.00;101318.47;7364750;19;20427;-48
2023/08/19 01:06:53;;;;;;;21.03;13.87;;;;;;;18.07;100.00;101315.84;7392446;19;20417;-47
2023/08/19 01:09:46;;;;;;;17.80;13.93;;;;;;;18.09;100.00;101308.03;7367493;19;20453;-52
2023/08/19 01:12:24;;;;;;;20.30;12.87;;;;;;;18.09;100.00;101305.41;7366170;19;20434;-47
2023/08/19 01:15:00;;;;;;;17.43;13.47;;;;;;;18.06;100.00;101305.38;7388847;19;20407;-46
2023/08/19 01:17:31;;;;;;;18.93;12.83;;;;;;;18.05;100.00;101311.41;7364290;19;20423;-49
2023/08/19 01:20:05;;;;;;;21.13;13.30;;;;;;;18.10;100.00;101301.09;7394467;19;20502;-51
2023/08/19 01:22:40;;;;;;;20.23;12.90;;;;;;;18.09;100.00;101300.19;7375621;19;20423;-44
2023/08/19 01:25:13;;;;;;;20.30;13.53;;;;;;;18.05;100.00;101293.13;7398560;19;20406;-49
2023/08/19 01:27:43;;;;;;;21.43;13.40;;;;;;;18.01;100.00;101297.44;7375316;19;20419;-47
2023/08/19 01:30:14;;;;;;;22.27;13.40;;;;;;;18.06;100.00;101300.16;7397943;19;20439;-46
2023/08/19 01:32:44;;;;;;;20.83;12.90;;;;;;;18.03;100.00;101305.25;7374400;19;20430;-49
2023/08/19 01:35:15;;;;;;;19.83;14.17;;;;;;;18.04;100.00;101307.03;7398878;19;20448;-45
2023/08/19 01:37:50;;;;;;;21.27;13.40;;;;;;;18.02;100.00;101303.50;7373900;19;21115;-45
2023/08/19 01:40:23;;;;;;;19.73;14.30;;;;;;;18.00;100.00;101318.28;7398131;19;20446;-45
2023/08/19 01:42:54;;;;;;;18.53;13.73;;;;;;;18.02;100.00;101309.63;7373957;19;20431;-48
2023/08/19 01:45:24;;;;;;;18.33;12.73;;;;;;;18.03;100.00;101308.78;7398986;19;20407;-48
2023/08/19 01:47:55;;;;;;;20.77;13.03;;;;;;;18.05;100.00;101314.91;7374964;19;20415;-50
2023/08/19 01:50:24;;;;;;;20.47;13.80;;;;;;;18.04;100.00;101312.25;7397275;19;20427;-51
2023/08/19 01:52:54;;;;;;;19.97;13.80;;;;;;;18.07;100.00;101307.13;7375953;19;20438;-49
2023/08/19 01:55:26;;;;;;;26.00;14.37;;;;;;;18.04;100.00;101304.41;7399160;19;20395;-48
2023/08/19 01:57:55;;;;;;;19.37;14.23;;;;;;;18.00;100.00;101306.06;7376825;19;21300;-48
2023/08/19 02:00:25;;;;;;;22.67;14.20;;;;;;;17.99;100.00;101306.06;7397540;19;20413;-51
2023/08/19 02:02:55;;;;;;;19.90;13.73;;;;;;;17.95;100.00;101308.59;7373662;19;20966;-46
2023/08/19 02:05:27;;;;;;;17.70;13.40;;;;;;;17.94;100.00;101305.97;7400845;19;20425;-47
2023/08/19 02:07:57;;;;;;;19.37;14.23;;;;;;;17.94;100.00;101309.47;7375955;19;20488;-46
2023/08/19 02:10:29;;;;;;;22.07;13.67;;;;;;;17.93;100.00;101307.72;7397305;19;20407;-52
2023/08/19 02:12:59;;;;;;;19.13;13.93;;;;;;;17.92;100.00;101298.13;7373984;19;20773;-47
2023/08/19 03:40:53;;;;;;;24.93;16.33;;;;;;;17.54;100.00;101300.81;7391869;19;20372;-45
2023/08/19 03:43:22;;;;;;;20.67;15.50;;;;;;;17.55;100.00;101299.97;7370644;19;20787;-46
2023/08/19 03:45:52;;;;;;;23.40;16.43;;;;;;;17.64;100.00;101301.91;7396489;19;20422;-47
2023/08/19 03:48:21;;;;;;;20.70;15.27;;;;;;;17.62;100.00;101311.38;7370990;19;20427;-47
2023/08/19 03:50:51;;;;;;;24.30;16.20;;;;;;;17.61;100.00;101297.50;7395874;19;20410;-46
2023/08/19 03:53:20;;;;;;;22.50;15.70;;;;;;;17.58;100.00;101300.00;7371612;19;20803;-46
2023/08/19 03:55:53;;;;;;;27.40;18.53;;;;;;;17.61;100.00;101302.69;7394357;19;20395;-46
2023/08/19 03:58:22;;;;;;;26.30;16.63;;;;;;;17.60;100.00;101308.78;7370295;19;21035;-46
2023/08/19 04:00:52;;;;;;;24.07;15.67;;;;;;;17.62;100.00;101307.06;7394289;19;20547;-47
2023/08/19 04:03:21;;;;;;;23.37;16.20;;;;;;;17.64;100.00;101313.19;7370534;19;20939;-48
2023/08/19 04:05:51;;;;;;;26.43;17.57;;;;;;;17.59;100.00;101313.94;7394632;19;20404;-46
2023/08/19 04:08:20;;;;;;;25.03;15.60;;;;;;;17.55;100.00;101313.00;7370441;19;20423;-47
2023/08/19 04:10:53;;;;;;;25.33;16.50;;;;;;;17.49;100.00;101315.47;7393224;19;20411;-47
2023/08/19 04:13:22;;;;;;;22.60;15.20;;;;;;;17.50;100.00;101315.53;7369651;19;20427;-47
2023/08/19 04:15:52;;;;;;;22.43;15.33;;;;;;;17.50;100.00;101312.03;7393893;19;21264;-50
2023/08/19 04:18:21;;;;;;;27.93;16.60;;;;;;;17.54;100.00;101308.66;7370296;19;20428;-46
2023/08/19 04:20:51;;;;;;;34.83;15.90;;;;;;;17.55;100.00;101302.56;7393956;19;20427;-44
2023/08/19 04:23:21;;;;;;;20.00;14.13;;;;;;;17.56;100.00;101309.53;7370908;19;20832;-55
2023/08/19 04:25:53;;;;;;;24.50;16.40;;;;;;;17.63;100.00;101302.72;7393864;19;20412;-54
2023/08/19 04:28:23;;;;;;;29.30;15.80;;;;;;;17.62;100.00;101298.34;7371282;19;20433;-52
2023/08/19 04:30:52;;;;;;;25.97;14.97;;;;;;;17.58;100.00;101297.41;7393644;19;20403;-55
2023/08/19 04:33:22;;;;;;;19.90;15.57;;;;;;;17.58;100.00;101300.00;7370824;19;20425;-55
2023/08/19 04:35:51;;;;;;;25.83;14.83;;;;;;;17.61;100.00;101307.03;7395232;19;20530;-54
2023/08/19 04:38:21;;;;;;;22.90;15.70;;;;;;;17.61;100.00;101307.94;7369671;19;20427;-52
2023/08/19 04:40:53;;;;;;;22.50;15.30;;;;;;;17.68;100.00;101317.63;7393680;19;20474;-53
2023/08/19 04:43:23;;;;;;;31.03;18.30;;;;;;;17.72;100.00;101309.84;7370385;19;20829;-52
2023/08/19 04:45:54;;;;;;;33.17;21.97;;;;;;;17.73;100.00;101316.88;7393366;19;20771;-53
2023/08/19 04:48:24;;;;;;;31.37;18.27;;;;;;;17.78;100.00;101315.22;7370013;19;20874;-54
2023/08/19 04:50:53;;;;;;;32.53;21.03;;;;;;;17.79;100.00;101311.78;7394653;19;20428;-54
2023/08/19 04:53:23;;;;;;;37.83;23.60;;;;;;;17.82;100.00;101322.25;7369001;19;20430;-54
2023/08/19 04:56:03;;;;;;;28.13;16.47;;;;;;;17.85;100.00;101322.34;7392028;19;21002;-54
2023/08/19 04:58:34;;;;;;;27.70;16.57;;;;;;;17.86;100.00;101313.66;7368318;19;20467;-53
2023/08/19 05:01:07;;;;;;;42.73;26.77;;;;;;;17.90;100.00;101323.28;7393546;19;20407;-53
2023/08/19 05:03:36;;;;;;;33.17;21.60;;;;;;;18.01;100.00;101318.31;7368126;19;20419;-51
2023/08/19 05:06:06;;;;;;;24.57;16.10;;;;;;;18.00;100.00;101313.06;7393183;19;20414;-54
2023/08/19 05:08:36;;;;;;;26.87;18.77;;;;;;;18.05;100.00;101314.03;7367655;19;20841;-55
2023/08/19 05:11:08;;;;;;;25.13;17.07;;;;;;;18.06;100.00;101321.91;7393081;19;20419;-55
2023/08/19 05:13:38;;;;;;;24.57;16.10;;;;;;;18.07;100.00;101315.84;7368261;19;20446;-55
2023/08/19 05:16:07;;;;;;;20.87;15.43;;;;;;;18.13;100.00;101322.91;7394754;19;20410;-52
2023/08/19 05:18:41;;;;;;;19.53;15.57;;;;;;;18.18;100.00;101321.28;7367468;19;21021;-53
2023/08/19 05:21:10;;;;;;;285.80;182.53;;;;;;;18.25;100.00;101321.41;7392307;19;20407;-54
2023/08/19 05:23:40;;;;;;;25.43;19.50;;;;;;;18.37;100.00;101321.63;7368155;19;20820;-54
2023/08/19 05:26:12;;;;;;;31.07;19.43;;;;;;;18.45;100.00;101316.50;7392738;19;20426;-55
2023/08/19 05:28:42;;;;;;;24.90;17.00;;;;;;;18.43;100.00;101318.22;7367799;19;20464;-54
2023/08/19 05:31:11;;;;;;;39.57;26.40;;;;;;;18.53;100.00;101317.56;7392022;19;20415;-51
2023/08/19 05:33:41;;;;;;;37.10;25.77;;;;;;;18.65;100.00;101332.56;7367020;19;20836;-54
2023/08/19 05:36:10;;;;;;;36.67;19.73;;;;;;;18.67;100.00;101325.63;7391939;19;20507;-54
2023/08/19 05:38:40;;;;;;;35.23;24.33;;;;;;;18.70;100.00;101335.25;7365960;19;20542;-54
2023/08/19 05:41:12;;;;;;;22.70;15.57;;;;;;;18.79;100.00;101344.97;7384661;19;20467;-39
2023/08/19 05:43:42;;;;;;;16.60;12.80;;;;;;;18.78;100.00;101358.91;7365969;19;21014;-38
2023/08/19 05:46:12;;;;;;;22.93;17.67;;;;;;;18.82;100.00;101355.50;7385025;19;20410;-39
2023/08/19 05:48:42;;;;;;;28.30;20.10;;;;;;;18.93;100.00;101371.34;7366675;19;20423;-38
2023/08/19 05:51:11;;;;;;;23.93;15.33;;;;;;;18.98;100.00;101377.56;7391841;19;20473;-38
2023/08/19 05:53:41;;;;;;;17.97;12.40;;;;;;;19.08;100.00;101382.09;7366122;19;20423;-39
2023/08/19 05:56:13;;;;;;;22.20;14.43;;;;;;;19.06;100.00;101385.56;7391182;19;20427;-38
2023/08/19 05:58:43;;;;;;;18.57;14.13;;;;;;;19.07;100.00;101395.16;7367124;19;20433;-39
2023/08/19 06:01:12;;;;;;;20.97;12.67;;;;;;;19.10;100.00;101385.63;7390257;19;20447;-40
2023/08/19 06:03:43;;;;;;;16.60;12.00;;;;;;;19.14;100.00;101399.63;7366137;19;20494;-39
2023/08/19 06:06:13;;;;;;;17.33;12.30;;;;;;;19.19;100.00;101397.09;7394960;19;20400;-38
2023/08/19 06:08:42;;;;;;;18.63;11.40;;;;;;;19.23;100.00;101404.13;7373718;19;20433;-39
2023/08/19 06:11:15;;;;;;;17.30;12.80;;;;;;;19.29;100.00;101410.31;7396898;19;20454;-38
2023/08/19 06:13:44;;;;;;;20.60;11.83;;;;;;;19.34;100.00;101406.91;7372973;19;20969;-38
2023/08/19 06:16:14;;;;;;;16.47;11.60;;;;;;;19.38;100.00;101413.97;7397312;19;20414;-41
2023/08/19 06:18:43;;;;;;;14.57;11.60;;;;;;;19.41;100.00;101412.28;7372691;19;20431;-39
2023/08/19 06:21:14;;;;;;;15.07;11.73;;;;;;;19.48;100.00;101410.63;7396944;19;20450;-41
2023/08/19 06:23:44;;;;;;;20.93;13.33;;;;;;;19.54;100.00;101404.63;7372607;19;20430;-40
2023/08/19 06:26:16;;;;;;;14.13;11.50;;;;;;;19.52;100.00;101409.81;7397524;19;20766;-39
2023/08/19 06:28:45;;;;;;;18.30;12.70;;;;;;;19.56;100.00;101403.78;7372628;19;20422;-39
2023/08/19 06:31:16;;;;;;;17.10;12.00;;;;;;;19.56;100.00;101414.25;7397061;19;20454;-39
2023/08/19 06:33:50;;;;;;;20.47;13.23;;;;;;;19.67;100.00;101410.88;7372639;19;20449;-39
2023/08/19 06:36:25;;;;;;;23.03;13.00;;;;;;;19.72;100.00;101410.94;7397574;19;20404;-38
2023/08/19 06:39:03;;;;;;;22.67;15.40;;;;;;;19.76;100.00;101413.66;7372351;19;20434;-39
2023/08/19 06:41:37;;;;;;;30.57;19.10;;;;;;;19.83;100.00;101412.88;7395197;19;20446;-39
2023/08/19 06:44:09;;;;;;;17.23;12.43;;;;;;;19.88;100.00;101414.69;7373133;19;20517;-40
2023/08/19 06:46:40;;;;;;;18.63;13.50;;;;;;;19.94;100.00;101418.25;7395397;19;20781;-39
2023/08/19 06:49:11;;;;;;;23.87;12.07;;;;;;;20.07;100.00;101411.47;7372323;19;20965;-39
2023/08/19 06:51:41;;;;;;;23.63;13.20;;;;;;;20.16;100.00;101415.06;7395941;19;20443;-39
2023/08/19 06:54:12;;;;;;;22.47;17.23;;;;;;;20.24;100.00;101419.53;7372904;19;20441;-38
2023/08/19 06:56:49;;;;;;;13.80;11.60;;;;;;;20.27;100.00;101428.28;7395926;19;20478;-41
2023/08/19 06:59:22;;;;;;;15.50;10.17;;;;;;;20.30;100.00;101423.97;7372082;19;20443;-39
2023/08/19 07:01:54;;;;;;;18.17;9.90;;;;;;;20.35;100.00;101435.38;7395586;19;20531;-38
2023/08/19 07:04:27;;;;;;;18.40;12.00;;;;;;;20.44;100.00;101441.59;7375710;19;20815;-39
2023/08/19 07:06:59;;;;;;;12.83;10.67;;;;;;;20.50;100.00;101441.66;7378570;19;20411;-38
2023/08/19 07:09:31;;;;;;;12.90;10.30;;;;;;;20.59;100.00;101439.16;7398767;19;20403;-39
2023/08/19 07:12:04;;;;;;;18.50;11.93;;;;;;;20.67;100.00;101436.63;7371258;19;20445;-38
2023/08/19 07:14:34;;;;;;;14.20;10.80;;;;;;;20.76;100.00;101451.53;7393360;19;20407;-41
2023/08/19 07:17:04;;;;;;;14.23;10.70;;;;;;;20.78;100.00;101448.06;7372550;19;20415;-38
2023/08/19 07:19:37;;;;;;;16.23;10.43;;;;;;;20.82;100.00;101448.13;7393014;19;20759;-38
2023/08/19 07:22:07;;;;;;;18.83;11.13;;;;;;;20.84;100.00;101455.16;7371519;19;20796;-38
2023/08/19 07:24:38;;;;;;;11.80;10.20;;;;;;;20.91;100.00;101457.00;7393493;19;20414;-43
2023/08/19 07:27:10;;;;;;;15.67;10.60;;;;;;;20.97;100.00;101452.66;7370837;19;20418;-40
2023/08/19 07:29:40;;;;;;;12.33;10.23;;;;;;;21.02;100.00;101458.84;7396467;19;20410;-38
2023/08/19 07:32:12;;;;;;;11.63;10.00;;;;;;;21.10;100.00;101458.91;7370887;19;20888;-40
2023/08/19 07:34:42;;;;;;;12.43;10.43;;;;;;;21.16;100.00;101454.59;7392894;19;20439;-38
2023/08/19 07:37:11;;;;;;;14.27;9.90;;;;;;;21.29;100.00;101454.69;7372337;19;21054;-38
2023/08/19 07:39:41;;;;;;;13.60;9.60;;;;;;;21.37;100.00;101457.41;7392260;19;20408;-38
2023/08/19 07:42:13;;;;;;;14.67;10.40;;;;;;;21.45;100.00;101468.81;7370252;19;20454;-41
2023/08/19 07:44:43;;;;;;;16.07;12.30;;;;;;;21.51;100.00;101466.25;7392898;19;20944;-40
2023/08/19 07:47:13;;;;;;;17.87;11.57;;;;;;;21.56;100.00;101468.91;7370103;19;20427;-39
2023/08/19 07:49:42;;;;;;;12.17;9.50;;;;;;;21.63;100.00;101480.34;7391926;19;21052;-40
2023/08/19 07:52:12;;;;;;;14.97;10.80;;;;;;;21.74;100.00;101483.06;7370837;19;20457;-38
2023/08/19 07:54:41;;;;;;;12.83;10.50;;;;;;;21.81;100.00;101479.59;7392714;19;20412;-40
2023/08/19 07:57:15;;;;;;;13.57;10.67;;;;;;;21.88;100.00;101491.03;7370304;19;20426;-39
2023/08/19 07:59:44;;;;;;;10.87;9.70;;;;;;;21.95;100.00;101504.19;7392271;19;20404;-39
2023/08/19 08:02:14;;;;;;;15.30;11.33;;;;;;;22.06;100.00;101512.16;7369512;19;20439;-38
2023/08/19 08:04:44;;;;;;;17.83;12.73;;;;;;;22.16;100.00;101515.72;7393991;19;20927;-39
2023/08/19 08:07:13;;;;;;;16.03;11.47;;;;;;;22.24;100.00;101529.75;7370875;19;20410;-40
2023/08/19 08:09:45;;;;;;;12.47;9.73;;;;;;;22.34;100.00;101535.06;7391984;19;20408;-38
2023/08/19 08:12:18;;;;;;;17.63;9.97;;;;;;;22.42;100.00;101548.25;7363313;19;20443;-39
2023/08/19 08:14:47;;;;;;;16.17;11.20;;;;;;;22.54;100.00;101552.72;7393035;19;20407;-39
2023/08/19 08:17:17;;;;;;;14.43;11.10;;;;;;;22.65;100.00;101553.63;7369914;19;20377;-39
2023/08/19 08:19:47;;;;;;;14.60;9.93;;;;;;;22.73;100.00;101562.44;7389766;19;20412;-39
2023/08/19 08:22:16;;;;;;;18.20;12.50;;;;;;;22.89;100.00;101570.38;7368928;19;21161;-39
2023/08/19 08:24:46;;;;;;;48.90;23.17;;;;;;;23.03;100.00;101571.28;7391841;19;20403;-40
2023/08/19 08:27:19;;;;;;;14.90;9.30;;;;;;;23.19;100.00;101576.59;7369296;19;20384;-41
2023/08/19 08:29:49;;;;;;;15.97;10.73;;;;;;;23.33;100.00;101576.66;7390847;19;20755;-40
2023/08/19 08:32:19;;;;;;;14.80;11.50;;;;;;;23.41;100.00;101576.66;7366076;19;20949;-40
2023/08/19 08:34:48;;;;;;;19.20;13.13;;;;;;;23.49;100.00;101585.47;7391464;19;20411;-39
2023/08/19 08:37:18;;;;;;;42.30;22.30;;;;;;;23.57;100.00;101596.88;7369403;19;20395;-39
2023/08/19 08:39:48;;;;;;;38.60;20.67;;;;;;;23.66;100.00;101595.09;7389835;19;20915;-40
2023/08/19 08:42:20;;;;;;;21.03;13.77;;;;;;;23.69;100.00;101589.84;7368293;19;20400;-39
2023/08/19 08:44:51;;;;;;;23.00;14.70;;;;;;;23.60;100.00;101583.69;7391680;19;20812;-42
2023/08/19 08:47:22;;;;;;;25.67;15.77;;;;;;;23.54;100.00;101581.06;7367806;19;20391;-39
2023/08/19 08:49:52;;;;;;;23.50;14.70;;;;;;;23.56;100.00;101575.78;7390500;19;20407;-41
2023/08/19 08:52:22;;;;;;;19.87;12.97;;;;;;;23.68;100.00;101578.44;7367227;19;21031;-40
2023/08/19 08:54:53;;;;;;;24.40;15.20;;;;;;;23.83;100.00;101574.03;7390685;19;20415;-40
2023/08/19 08:57:26;;;;;;;12.13;9.33;;;;;;;23.97;100.00;101577.53;7366497;19;20482;-45
2023/08/19 08:59:55;;;;;;;21.37;11.67;;;;;;;24.15;100.00;101581.06;7389716;19;20419;-39
2023/08/19 09:02:26;;;;;;;27.33;16.37;;;;;;;24.23;100.00;101578.41;7366190;19;20410;-39
2023/08/19 09:04:55;;;;;;;36.27;21.63;;;;;;;24.36;100.00;101595.94;7390581;19;20413;-41
2023/08/19 09:07:28;;;;;;;14.47;10.47;;;;;;;24.48;100.00;101607.34;7368221;19;20919;-40
2023/08/19 09:10:00;;;;;;;25.90;15.90;;;;;;;24.53;100.00;101616.13;7390658;19;20753;-40
2023/08/19 09:12:34;;;;;;;12.70;9.90;;;;;;;24.58;100.00;101616.97;7368501;19;20447;-40
2023/08/19 09:15:06;;;;;;;10.97;8.93;;;;;;;24.60;100.00;101615.22;7391627;19;20478;-41
2023/08/19 09:17:36;;;;;;;10.80;9.47;;;;;;;24.57;100.00;101609.97;7366857;19;20445;-41
2023/08/19 09:20:06;;;;;;;10.87;9.63;;;;;;;24.60;100.00;101595.88;7390684;19;20403;-39
2023/08/19 09:22:37;;;;;;;12.87;10.30;;;;;;;24.70;100.00;101599.38;7368103;19;20437;-42
2023/08/19 09:25:08;;;;;;;13.17;9.43;;;;;;;24.85;100.00;101593.19;7391361;19;20410;-40
2023/08/19 09:27:40;;;;;;;12.60;9.53;;;;;;;24.97;100.00;101594.88;7366250;19;20788;-42
2023/08/19 09:30:11;;;;;;;13.73;10.00;;;;;;;25.05;100.00;101598.34;7389952;19;20967;-41
2023/08/19 09:32:41;;;;;;;15.30;9.20;;;;;;;25.13;100.00;101598.28;7366774;19;20437;-41
2023/08/19 09:35:12;;;;;;;11.27;9.80;;;;;;;25.16;100.00;101604.44;7392462;19;20407;-42
2023/08/19 09:37:43;;;;;;;10.60;9.17;;;;;;;25.33;100.00;101606.97;7366454;19;20504;-42
2023/08/19 09:40:17;;;;;;;11.47;8.93;;;;;;;25.48;100.00;101615.69;7391957;19;20411;-40
2023/08/19 09:42:51;;;;;;;11.27;9.67;;;;;;;25.64;100.00;101627.03;7375460;19;20831;-43
2023/08/19 09:45:23;;;;;;;13.57;9.07;;;;;;;25.80;100.00;101617.22;7397951;19;20491;-41
2023/08/19 09:47:53;;;;;;;12.03;9.20;;;;;;;25.98;100.00;101610.88;7372834;19;20435;-40
2023/08/19 09:50:24;;;;;;;10.70;9.40;;;;;;;25.92;100.00;101615.34;7395530;19;20478;-39
2023/08/19 09:52:57;;;;;;;10.73;8.50;;;;;;;25.73;100.00;101632.25;7372970;19;20985;-40
2023/08/19 09:55:27;;;;;;;16.60;11.27;;;;;;;25.59;100.00;101628.84;7397121;19;20411;-40
2023/08/19 09:58:00;;;;;;;15.17;10.60;;;;;;;25.55;100.00;101624.47;7373277;19;20423;-40
2023/08/19 10:00:29;;;;;;;11.00;9.20;;;;;;;25.72;100.00;101621.69;7397057;19;20454;-42
2023/08/19 10:02:59;;;;;;;10.80;9.70;;;;;;;25.82;100.00;101620.72;7374925;19;20425;-40
2023/08/19 10:05:29;;;;;;;11.70;10.30;;;;;;;25.84;100.00;101628.66;7399251;19;20414;-41
2023/08/19 10:08:03;;;;;;;13.90;9.60;;;;;;;25.80;100.00;101619.88;7372868;19;20433;-43
2023/08/19 10:10:33;;;;;;;11.93;9.77;;;;;;;25.80;100.00;101618.97;7396745;19;20417;-43
2023/08/19 10:13:06;;;;;;;13.43;10.10;;;;;;;25.93;100.00;101606.56;7372059;19;20973;-41
2023/08/19 10:15:36;;;;;;;14.77;10.90;;;;;;;26.14;100.00;101602.78;7395711;19;20399;-39
2023/08/19 10:18:09;;;;;;;12.83;9.40;;;;;;;26.25;100.00;101608.88;7374300;19;20425;-44
2023/08/19 10:20:40;;;;;;;16.67;12.10;;;;;;;26.25;100.00;101619.47;7394860;19;20450;-41
2023/08/19 10:23:11;;;;;;;13.90;10.50;;;;;;;26.31;100.00;101615.91;7372830;19;20924;-43
2023/08/19 10:25:42;;;;;;;13.50;10.60;;;;;;;26.34;100.00;101615.00;7395693;19;20423;-41
2023/08/19 10:28:16;;;;;;;14.50;11.67;;;;;;;26.56;100.00;101613.84;7371029;19;20423;-42
2023/08/19 10:30:45;;;;;;;10.63;9.50;;;;;;;26.65;100.00;101612.84;7394797;19;20439;-40
2023/08/19 10:33:32;;;;;;;14.20;10.30;;;;;;;26.74;100.00;101611.88;7370732;19;20427;-41
2023/08/19 10:36:04;;;;;;;15.67;10.87;;;;;;;26.94;100.00;101618.69;7396163;19;20427;-40
2023/08/19 10:38:47;;;;;;;15.43;10.67;;;;;;;26.99;100.00;101616.88;7366526;19;20821;-41
2023/08/19 10:41:35;;;;;;;13.07;10.43;;;;;;;27.11;100.00;101609.66;7395793;19;20535;-41
2023/08/19 10:44:09;;;;;;;12.73;10.50;;;;;;;27.28;100.00;101614.69;7370520;19;20451;-41
2023/08/19 10:46:40;;;;;;;15.67;10.33;;;;;;;27.27;100.00;101621.75;7395437;19;20410;-41
2023/08/19 10:49:10;;;;;;;11.90;10.20;;;;;;;27.16;100.00;101629.88;7368856;19;20435;-38
2023/08/19 10:51:57;;;;;;;16.90;9.97;;;;;;;27.09;100.00;101637.03;7393177;19;20558;-42
2023/08/19 10:54:35;;;;;;;16.73;10.67;;;;;;;27.36;100.00;101634.00;7375465;19;20439;-41
2023/08/19 10:57:12;;;;;;;12.30;9.83;;;;;;;27.53;100.00;101623.13;7370121;19;20410;-44
2023/08/19 10:59:45;;;;;;;14.93;10.30;;;;;;;27.58;100.00;101616.03;7393458;19;20399;-41
2023/08/19 11:02:16;;;;;;;14.90;10.60;;;;;;;27.57;100.00;101613.38;7371267;19;20455;-40
2023/08/19 11:04:48;;;;;;;14.60;11.33;;;;;;;27.52;100.00;101608.13;7394234;19;20482;-40
2023/08/19 11:07:18;;;;;;;12.27;9.70;;;;;;;27.65;100.00;101610.63;7371288;19;20406;-43
2023/08/19 11:09:48;;;;;;;12.57;11.00;;;;;;;27.75;100.00;101612.22;7393732;19;20418;-40
2023/08/19 11:12:20;;;;;;;13.67;11.10;;;;;;;27.89;100.00;101598.75;7369455;19;20410;-42
2023/08/19 11:14:55;;;;;;;13.30;11.00;;;;;;;27.95;100.00;101605.69;7396611;19;20400;-40
2023/08/19 11:17:30;;;;;;;13.73;11.33;;;;;;;27.86;100.00;101602.31;7371215;19;20399;-43
2023/08/19 11:20:07;;;;;;;13.17;10.67;;;;;;;27.90;100.00;101601.34;7393918;19;20415;-42
2023/08/19 11:22:43;;;;;;;12.87;10.53;;;;;;;27.88;100.00;101602.28;7371302;19;20423;-43
2023/08/19 11:25:12;;;;;;;11.87;10.60;;;;;;;27.86;100.00;101598.78;7396808;19;20407;-44
2023/08/19 11:27:42;;;;;;;13.00;10.43;;;;;;;27.88;100.00;101605.81;7364568;19;20419;-40
2023/08/19 11:30:15;;;;;;;11.90;10.63;;;;;;;27.77;100.00;101606.00;7393205;19;20418;-40
2023/08/19 11:32:47;;;;;;;12.33;10.27;;;;;;;27.84;100.00;101596.16;7370792;19;20427;-41
2023/08/19 11:35:17;;;;;;;14.50;9.70;;;;;;;27.82;100.00;101597.97;7394217;19;20634;-42
2023/08/19 11:37:47;;;;;;;16.83;11.43;;;;;;;27.83;100.00;101596.19;7369950;19;20434;-39
2023/08/19 11:40:17;;;;;;;16.50;9.97;;;;;;;27.89;100.00;101599.59;7393464;19;20620;-41
2023/08/19 11:43:07;;;;;;;14.23;10.57;;;;;;;27.89;100.00;101598.75;7370626;19;20502;-40
2023/08/19 11:45:41;;;;;;;11.87;10.43;;;;;;;27.88;100.00;101597.84;7393216;19;20400;-40
2023/08/19 11:48:15;;;;;;;13.57;10.70;;;;;;;27.82;100.00;101608.56;7370592;19;20506;-41
2023/08/19 11:50:49;;;;;;;15.10;10.70;;;;;;;27.77;100.00;101607.75;7392455;19;20427;-42
2023/08/19 11:53:26;;;;;;;12.20;10.57;;;;;;;27.65;100.00;101600.03;7369369;19;20438;-39
2023/08/19 11:55:58;;;;;;;13.10;11.10;;;;;;;27.57;100.00;101601.03;7395902;19;20487;-42
2023/08/19 11:58:40;;;;;;;12.10;9.73;;;;;;;27.42;100.00;101604.75;7370165;19;20431;-41
2023/08/19 12:01:13;;;;;;;16.20;11.67;;;;;;;27.38;100.00;101604.84;7394618;19;20424;-38
2023/08/19 12:03:44;;;;;;;13.27;10.77;;;;;;;27.16;100.00;101613.13;7369399;19;20440;-39
2023/08/19 12:06:14;;;;;;;17.23;11.47;;;;;;;27.21;100.00;101613.91;7396015;19;20402;-42
2023/08/19 12:08:44;;;;;;;14.57;11.60;;;;;;;27.19;100.00;101616.59;7368731;19;20506;-42
2023/08/19 12:11:15;;;;;;;19.97;13.53;;;;;;;27.10;100.00;101608.78;7395442;19;20457;-43
2023/08/19 12:13:45;;;;;;;12.87;10.80;;;;;;;26.99;100.00;101600.09;7369465;19;20430;-41
2023/08/19 12:16:17;;;;;;;59.67;42.73;;;;;;;26.88;100.00;101597.56;7394227;19;20407;-39
2023/08/19 12:18:47;;;;;;;27.67;14.83;;;;;;;26.82;100.00;101599.41;7369207;19;20513;-41
2023/08/19 12:21:17;;;;;;;19.97;13.20;;;;;;;26.77;100.00;101595.94;7393683;19;20447;-42
2023/08/19 12:23:46;;;;;;;12.60;10.87;;;;;;;26.73;100.00;101583.66;7370081;19;20437;-42
2023/08/19 12:26:16;;;;;;;14.93;12.07;;;;;;;26.73;100.00;101586.31;7394761;19;20399;-41
2023/08/19 12:28:46;;;;;;;23.93;12.70;;;;;;;26.68;100.00;101585.47;7368433;19;20431;-42
2023/08/19 12:31:18;;;;;;;15.50;12.30;;;;;;;26.69;100.00;101592.50;7393780;19;20443;-44
2023/08/19 12:33:48;;;;;;;12.70;11.03;;;;;;;26.72;100.00;101592.50;7369275;19;20427;-42
2023/08/19 12:36:17;;;;;;;16.33;12.67;;;;;;;26.78;100.00;101587.13;7394167;19;20415;-42
2023/08/19 12:38:48;;;;;;;15.97;12.83;;;;;;;26.78;100.00;101580.94;7368266;19;21296;-42
2023/08/19 12:41:18;;;;;;;12.90;10.60;;;;;;;26.77;100.00;101579.19;7393690;19;20527;-43
2023/08/19 12:43:47;;;;;;;17.23;10.23;;;;;;;26.73;100.00;101572.19;7368659;19;20424;-42
2023/08/19 12:46:20;;;;;;;12.73;10.33;;;;;;;26.71;100.00;101574.84;7393487;19;20412;-41